Time;durP1;ratioP1;P1;durP2;ratioP2;P2;SDS_P1;SDS_P2;PMS_P1;PMS_P2;Temp;Humidity;BMP_temperature;BMP_pressure;BME280_temperature;BME280_humidity;BME280_pressure;Samples;Min_cycle;Max_cycle;Signal;HPM_P1;HPM_P2
2022/09/29 00:00:31;;;;;;;2.53;1.95;;;8.60;99.90;;;;;;4982799;28;20053;-71
2022/09/29 00:02:56;;;;;;;5.85;1.67;;;8.50;99.90;;;;;;4980105;28;20027;-70
2022/09/29 00:05:22;;;;;;;3.53;1.30;;;8.50;99.90;;;;;;4979038;28;20039;-71
2022/09/29 00:07:47;;;;;;;4.18;1.85;;;8.50;99.90;;;;;;4980803;28;20046;-70
2022/09/29 00:10:13;;;;;;;4.07;1.70;;;8.40;99.90;;;;;;4982981;28;20092;-70
2022/09/29 00:12:39;;;;;;;2.80;1.40;;;8.40;99.90;;;;;;4984588;28;20093;-70
2022/09/29 00:15:06;;;;;;;2.50;1.42;;;8.40;99.90;;;;;;4976823;28;20038;-70
2022/09/29 00:17:31;;;;;;;2.97;1.73;;;8.40;99.90;;;;;;4983592;28;20035;-70
2022/09/29 00:19:57;;;;;;;3.33;1.88;;;8.40;99.90;;;;;;4980297;28;20046;-70
2022/09/29 00:22:23;;;;;;;3.63;1.38;;;8.30;99.90;;;;;;4982963;28;20039;-70
2022/09/29 00:24:48;;;;;;;5.10;2.10;;;8.30;99.90;;;;;;4980870;28;20650;-70
2022/09/29 00:27:16;;;;;;;5.20;1.90;;;8.30;99.90;;;;;;4981697;28;20165;-70
2022/09/29 00:29:41;;;;;;;5.82;2.03;;;8.30;99.90;;;;;;4979598;28;20135;-69
2022/09/29 00:32:07;;;;;;;4.93;1.80;;;8.30;99.90;;;;;;4978656;28;20527;-70
2022/09/29 00:34:32;;;;;;;3.58;1.67;;;8.30;99.90;;;;;;4976738;28;20031;-70
2022/09/29 00:36:58;;;;;;;3.90;1.60;;;8.20;99.90;;;;;;4977634;28;20121;-70
2022/09/29 00:39:24;;;;;;;5.97;2.28;;;8.20;99.90;;;;;;4981110;28;20061;-70
2022/09/29 00:41:49;;;;;;;3.15;1.58;;;8.20;99.90;;;;;;4981888;28;20039;-71
2022/09/29 00:44:15;;;;;;;3.58;2.00;;;8.20;99.90;;;;;;4979812;28;20097;-69
2022/09/29 00:47:02;;;;;;;3.15;1.67;;;8.10;99.90;;;;;;4978276;28;20111;-70
2022/09/29 00:49:42;;;;;;;4.72;2.00;;;8.20;99.90;;;;;;4982567;28;20036;-70
2022/09/29 00:52:14;;;;;;;5.68;2.05;;;8.10;99.90;;;;;;4981427;28;20134;-70
2022/09/29 00:54:48;;;;;;;3.05;1.80;;;8.10;99.90;;;;;;4977529;28;20031;-70
2022/09/29 00:57:17;;;;;;;6.05;2.42;;;8.10;99.90;;;;;;4982132;28;20057;-70
2022/09/29 00:59:51;;;;;;;4.40;2.45;;;8.10;99.90;;;;;;4982217;28;20046;-69
2022/09/29 01:02:18;;;;;;;5.13;2.08;;;8.10;99.90;;;;;;4979525;28;20050;-71
2022/09/29 01:04:46;;;;;;;3.50;2.28;;;8.10;99.90;;;;;;4981647;28;20043;-70
2022/09/29 01:07:13;;;;;;;5.75;2.38;;;8.10;99.90;;;;;;4979693;28;20051;-70
2022/09/29 01:09:40;;;;;;;3.00;1.95;;;8.10;99.90;;;;;;4981662;28;20090;-70
2022/09/29 01:12:06;;;;;;;5.05;2.30;;;8.00;99.90;;;;;;4975825;28;20117;-70
2022/09/29 01:14:33;;;;;;;4.28;2.35;;;8.00;99.90;;;;;;4982410;28;20121;-70
2022/09/29 01:17:00;;;;;;;4.90;2.33;;;8.00;99.90;;;;;;4983465;28;20042;-70
2022/09/29 01:19:34;;;;;;;5.05;2.53;;;8.00;99.90;;;;;;4983005;28;20501;-71
2022/09/29 01:22:27;;;;;;;5.47;1.92;;;8.00;99.90;;;;;;4979588;28;20129;-70
2022/09/29 01:25:44;;;;;;;4.75;2.15;;;8.00;99.90;;;;;;4978460;28;20046;-69
2022/09/29 01:28:15;;;;;;;5.38;2.33;;;8.10;99.90;;;;;;4960470;28;20066;-70
2022/09/29 01:31:21;;;;;;;5.60;2.80;;;8.10;99.90;;;;;;4959759;28;20082;-70
2022/09/29 01:33:52;;;;;;;4.20;2.03;;;8.10;99.90;;;;;;4971790;28;20050;-71
2022/09/29 01:36:41;;;;;;;4.10;2.35;;;8.10;99.90;;;;;;4981832;28;20056;-72
2022/09/29 01:39:18;;;;;;;8.15;2.65;;;8.10;99.90;;;;;;4979155;28;20034;-71
2022/09/29 01:42:08;;;;;;;5.07;2.50;;;8.10;99.90;;;;;;4975915;28;20031;-71
2022/09/29 01:44:43;;;;;;;4.13;2.25;;;8.10;99.90;;;;;;4978256;28;20042;-70
2022/09/29 01:47:19;;;;;;;5.05;2.97;;;8.10;99.90;;;;;;4971830;28;20046;-70
2022/09/29 01:49:50;;;;;;;5.63;2.38;;;8.00;99.90;;;;;;4976794;28;20186;-71
2022/09/29 01:52:21;;;;;;;6.07;2.50;;;8.00;99.90;;;;;;4974498;28;20031;-71
2022/09/29 01:54:49;;;;;;;4.70;2.42;;;8.00;99.90;;;;;;4975593;28;20486;-71
2022/09/29 01:57:27;;;;;;;4.65;2.60;;;8.00;99.90;;;;;;4973149;28;20039;-70
2022/09/29 02:00:10;;;;;;;6.25;2.70;;;7.90;99.90;;;;;;4983508;28;20038;-70
2022/09/29 02:02:40;;;;;;;5.18;2.70;;;7.90;99.90;;;;;;4974267;28;20027;-70
2022/09/29 02:05:13;;;;;;;3.75;2.58;;;7.90;99.90;;;;;;4979772;28;20046;-71
2022/09/29 02:07:44;;;;;;;4.50;2.78;;;7.80;99.90;;;;;;4967091;28;20064;-71
2022/09/29 02:10:15;;;;;;;3.75;2.17;;;7.80;99.90;;;;;;4981165;28;20108;-70
2022/09/29 02:12:43;;;;;;;7.10;3.22;;;7.80;99.90;;;;;;4983083;28;20105;-70
2022/09/29 02:15:13;;;;;;;4.45;2.83;;;7.80;99.90;;;;;;4976053;28;20046;-70
2022/09/29 02:17:44;;;;;;;5.38;2.72;;;7.80;99.90;;;;;;4982233;28;20037;-69
2022/09/29 02:20:11;;;;;;;5.60;2.60;;;7.80;99.90;;;;;;4977933;28;20035;-70
2022/09/29 02:22:37;;;;;;;5.53;2.78;;;7.80;99.90;;;;;;4977085;28;20030;-72
2022/09/29 02:25:04;;;;;;;5.20;3.15;;;7.70;99.90;;;;;;4977448;28;20979;-69
2022/09/29 02:27:32;;;;;;;5.05;2.40;;;7.70;99.90;;;;;;4988759;28;20375;-70
2022/09/29 02:29:58;;;;;;;7.50;3.33;;;7.70;99.90;;;;;;4986401;28;20042;-70
2022/09/29 02:32:25;;;;;;;5.10;2.72;;;7.70;99.90;;;;;;4973218;28;20042;-72
2022/09/29 02:34:52;;;;;;;5.70;2.35;;;7.70;99.90;;;;;;4979785;28;20510;-70
2022/09/29 02:37:22;;;;;;;5.03;2.85;;;7.60;99.90;;;;;;4978559;28;20046;-70
2022/09/29 02:40:38;;;;;;;5.85;2.80;;;7.60;99.90;;;;;;4977942;28;20090;-70
2022/09/29 02:43:31;;;;;;;4.35;2.72;;;7.60;99.90;;;;;;4957788;28;20557;-70
2022/09/29 02:46:05;;;;;;;7.72;3.42;;;7.60;99.90;;;;;;4984153;28;20042;-70
2022/09/29 02:48:59;;;;;;;4.18;2.45;;;7.60;99.90;;;;;;4967475;28;20026;-71
2022/09/29 02:51:40;;;;;;;5.28;2.78;;;7.50;99.90;;;;;;4980754;28;20072;-70
2022/09/29 02:54:17;;;;;;;4.72;2.70;;;7.50;99.90;;;;;;4973219;28;20061;-71
2022/09/29 02:57:11;;;;;;;5.57;2.92;;;7.50;99.90;;;;;;4973307;28;20104;-70
2022/09/29 03:00:08;;;;;;;8.00;2.83;;;7.50;99.90;;;;;;4978539;28;20041;-70
2022/09/29 03:02:35;;;;;;;5.93;3.28;;;7.50;99.90;;;;;;4976350;28;20050;-70
2022/09/29 03:05:02;;;;;;;6.53;3.25;;;7.50;99.90;;;;;;4984785;28;20384;-71
2022/09/29 03:07:28;;;;;;;5.60;2.65;;;7.50;99.90;;;;;;4978663;28;20057;-71
2022/09/29 03:09:53;;;;;;;5.25;2.30;;;7.50;99.90;;;;;;4980828;28;20038;-70
2022/09/29 03:12:19;;;;;;;5.20;2.60;;;7.50;99.90;;;;;;4977943;28;20038;-71
2022/09/29 03:14:45;;;;;;;4.72;2.83;;;7.50;99.90;;;;;;4981202;28;20034;-71
2022/09/29 03:17:11;;;;;;;6.55;3.30;;;7.40;99.90;;;;;;4981114;28;20054;-69
2022/09/29 03:19:36;;;;;;;3.72;2.20;;;7.40;99.90;;;;;;4984060;28;20035;-70
2022/09/29 03:22:02;;;;;;;7.40;2.92;;;7.40;99.90;;;;;;4983250;28;20038;-70
2022/09/29 03:24:28;;;;;;;9.18;3.65;;;7.40;99.90;;;;;;4975889;28;20042;-70
2022/09/29 03:26:54;;;;;;;5.53;3.05;;;7.40;99.90;;;;;;4981324;28;20033;-70
2022/09/29 03:29:19;;;;;;;5.80;2.92;;;7.40;99.90;;;;;;4976167;28;20125;-71
2022/09/29 03:31:45;;;;;;;6.93;3.25;;;7.40;99.90;;;;;;4976546;28;20555;-70
2022/09/29 03:34:11;;;;;;;4.85;3.10;;;7.40;99.90;;;;;;4979385;28;20038;-69
2022/09/29 03:36:36;;;;;;;4.32;2.65;;;7.40;99.90;;;;;;4984180;28;20066;-70
2022/09/29 03:39:02;;;;;;;9.23;3.28;;;7.40;99.90;;;;;;4980706;28;20562;-70
2022/09/29 03:41:27;;;;;;;5.90;2.55;;;7.40;99.90;;;;;;4978741;28;20121;-70
2022/09/29 03:43:53;;;;;;;6.45;3.05;;;7.40;99.90;;;;;;4982946;28;20058;-72
2022/09/29 03:46:19;;;;;;;6.47;2.70;;;7.40;99.90;;;;;;4983452;28;20107;-71
2022/09/29 03:48:44;;;;;;;7.82;3.08;;;7.40;99.90;;;;;;4982069;28;20053;-70
2022/09/29 03:51:10;;;;;;;5.00;2.53;;;7.30;99.90;;;;;;4977834;28;20066;-70
2022/09/29 03:53:36;;;;;;;5.25;3.25;;;7.30;99.90;;;;;;4985170;28;20506;-70
2022/09/29 03:56:02;;;;;;;5.00;2.38;;;7.30;99.90;;;;;;4983197;28;20054;-70
2022/09/29 03:58:28;;;;;;;4.38;2.28;;;7.30;99.90;;;;;;4987671;28;20518;-70
2022/09/29 04:00:53;;;;;;;5.00;2.80;;;7.30;99.90;;;;;;4980512;28;20037;-70
2022/09/29 04:03:19;;;;;;;7.70;2.80;;;7.30;99.90;;;;;;4980699;28;20037;-70
2022/09/29 04:05:46;;;;;;;5.38;2.67;;;7.20;99.90;;;;;;4981700;28;20650;-69
2022/09/29 04:08:12;;;;;;;6.13;3.20;;;7.20;99.90;;;;;;4984451;28;20076;-70
2022/09/29 04:10:39;;;;;;;4.43;2.20;;;7.20;99.90;;;;;;4983413;28;20543;-70
2022/09/29 04:13:05;;;;;;;6.38;2.67;;;7.20;99.90;;;;;;4987087;28;20054;-70
2022/09/29 04:15:31;;;;;;;5.38;2.67;;;7.20;99.90;;;;;;4979753;28;20092;-70
2022/09/29 04:17:57;;;;;;;4.90;2.75;;;7.10;99.90;;;;;;4983271;28;20039;-70
2022/09/29 04:20:23;;;;;;;5.47;2.55;;;7.10;99.90;;;;;;4982538;28;20049;-72
2022/09/29 04:22:49;;;;;;;5.00;2.78;;;7.10;99.90;;;;;;4984487;28;20026;-71
2022/09/29 04:25:14;;;;;;;5.10;2.95;;;7.10;99.90;;;;;;4985359;28;20069;-71
2022/09/29 04:27:40;;;;;;;6.18;2.95;;;7.10;99.90;;;;;;4980965;28;20039;-70
2022/09/29 04:30:06;;;;;;;6.00;2.83;;;7.10;99.90;;;;;;4982395;28;20068;-70
2022/09/29 04:32:32;;;;;;;10.30;2.95;;;7.10;99.90;;;;;;4974141;28;20035;-71
2022/09/29 04:34:57;;;;;;;5.70;3.15;;;7.10;99.90;;;;;;4977811;28;20043;-70
2022/09/29 04:37:23;;;;;;;6.50;2.35;;;7.00;99.90;;;;;;4978890;28;20093;-69
2022/09/29 04:39:51;;;;;;;4.88;2.83;;;7.00;99.90;;;;;;4974460;28;20039;-69
2022/09/29 04:42:17;;;;;;;6.25;3.22;;;7.00;99.90;;;;;;4969870;28;20070;-70
2022/09/29 04:44:42;;;;;;;5.45;2.70;;;6.90;99.90;;;;;;4977242;28;20483;-70
2022/09/29 04:47:08;;;;;;;6.65;3.25;;;6.90;99.90;;;;;;4981317;28;20507;-71
2022/09/29 04:49:33;;;;;;;7.53;3.10;;;6.90;99.90;;;;;;4979613;28;20042;-70
2022/09/29 04:51:59;;;;;;;5.10;2.90;;;6.80;99.90;;;;;;4986780;28;20032;-70
2022/09/29 04:54:32;;;;;;;6.03;2.65;;;6.80;99.90;;;;;;4974376;28;20051;-69
2022/09/29 04:56:58;;;;;;;7.07;3.17;;;6.80;99.90;;;;;;4979843;28;20038;-70
2022/09/29 04:59:24;;;;;;;6.13;2.88;;;6.80;99.90;;;;;;4986664;28;20023;-69
2022/09/29 05:01:49;;;;;;;6.32;3.10;;;6.80;99.90;;;;;;4981581;28;20059;-71
2022/09/29 05:04:15;;;;;;;4.43;2.58;;;6.80;99.90;;;;;;4982138;28;20134;-70
2022/09/29 05:06:40;;;;;;;6.22;3.50;;;6.80;99.90;;;;;;4971295;28;20026;-70
2022/09/29 05:09:06;;;;;;;8.95;3.30;;;6.80;99.90;;;;;;4976590;28;20033;-70
2022/09/29 05:11:32;;;;;;;5.47;3.00;;;6.80;99.90;;;;;;4989027;28;20061;-70
2022/09/29 05:13:58;;;;;;;6.22;3.20;;;6.80;99.90;;;;;;4977932;28;20831;-70
2022/09/29 05:16:24;;;;;;;6.53;3.33;;;6.80;99.90;;;;;;4977165;28;20049;-70
2022/09/29 05:18:50;;;;;;;6.75;3.40;;;6.80;99.90;;;;;;4981640;28;20121;-71
2022/09/29 05:21:15;;;;;;;10.13;3.53;;;6.80;99.90;;;;;;4986257;28;20759;-69
2022/09/29 05:23:41;;;;;;;5.75;3.60;;;6.80;99.90;;;;;;4981596;28;20100;-72
2022/09/29 05:26:09;;;;;;;6.68;3.42;;;6.80;99.90;;;;;;4985823;28;20042;-70
2022/09/29 05:28:35;;;;;;;9.77;3.45;;;6.80;99.90;;;;;;4984013;28;20121;-70
2022/09/29 05:31:06;;;;;;;6.95;3.55;;;6.80;99.90;;;;;;4990266;28;20076;-70
2022/09/29 05:33:33;;;;;;;7.95;3.97;;;6.80;99.90;;;;;;4989409;28;20045;-70
2022/09/29 05:35:59;;;;;;;7.63;3.85;;;6.90;99.90;;;;;;4990157;28;20498;-70
2022/09/29 05:38:25;;;;;;;8.80;3.42;;;6.90;99.90;;;;;;4980128;28;20058;-69
2022/09/29 05:40:52;;;;;;;8.00;4.28;;;7.00;99.90;;;;;;4974202;28;20023;-71
2022/09/29 05:43:20;;;;;;;6.85;3.60;;;7.00;99.90;;;;;;4974205;28;20055;-69
2022/09/29 05:45:46;;;;;;;8.43;4.15;;;7.00;99.90;;;;;;4981683;28;20125;-69
2022/09/29 05:48:11;;;;;;;6.43;3.42;;;7.00;99.90;;;;;;4973989;28;20121;-69
2022/09/29 05:50:40;;;;;;;11.88;3.78;;;7.00;99.90;;;;;;4970219;28;20035;-70
2022/09/29 05:53:07;;;;;;;11.18;5.07;;;7.00;99.90;;;;;;4974197;28;20566;-70
2022/09/29 05:55:34;;;;;;;12.25;4.88;;;7.10;99.90;;;;;;4974827;28;20038;-69
2022/09/29 05:57:59;;;;;;;13.55;4.57;;;7.10;99.90;;;;;;4985484;28;20155;-69
2022/09/29 06:00:25;;;;;;;11.32;4.97;;;7.10;99.90;;;;;;4981273;28;20430;-70
2022/09/29 06:02:51;;;;;;;14.43;4.70;;;7.10;99.90;;;;;;4988350;28;20038;-69
2022/09/29 06:05:16;;;;;;;16.35;5.70;;;7.10;99.90;;;;;;4988964;28;20081;-71
2022/09/29 06:07:42;;;;;;;11.27;4.63;;;7.10;99.90;;;;;;4979137;28;20093;-71
2022/09/29 06:10:08;;;;;;;12.07;4.93;;;7.10;99.90;;;;;;4970024;28;20037;-70
2022/09/29 06:12:35;;;;;;;14.00;5.88;;;7.10;99.90;;;;;;4971218;28;20177;-70
2022/09/29 06:15:02;;;;;;;11.57;5.63;;;7.10;99.90;;;;;;4972411;28;20031;-70
2022/09/29 06:17:27;;;;;;;12.13;5.03;;;7.10;99.90;;;;;;4980676;28;20038;-70
2022/09/29 06:19:53;;;;;;;11.48;4.95;;;7.10;99.90;;;;;;4981249;28;20045;-70
2022/09/29 06:22:18;;;;;;;15.02;5.50;;;7.10;99.90;;;;;;4981356;28;20034;-70
2022/09/29 06:24:44;;;;;;;13.40;6.18;;;7.20;99.90;;;;;;4981197;28;20129;-69
2022/09/29 06:27:10;;;;;;;12.05;5.18;;;7.10;99.90;;;;;;4988635;28;20052;-70
2022/09/29 06:29:35;;;;;;;12.77;5.38;;;7.20;99.90;;;;;;4981770;28;20031;-69
2022/09/29 06:32:02;;;;;;;17.23;5.78;;;7.20;99.90;;;;;;4986179;28;20039;-69
2022/09/29 06:34:27;;;;;;;13.07;5.30;;;7.20;99.90;;;;;;4988572;28;20038;-69
2022/09/29 06:39:37;;;;;;;13.25;5.75;;;7.20;99.90;;;;;;4989123;28;20395;-69
2022/09/29 06:42:03;;;;;;;10.82;5.60;;;7.20;99.90;;;;;;4975916;28;20027;-69
2022/09/29 06:44:29;;;;;;;12.25;5.43;;;7.30;99.90;;;;;;4986233;28;20027;-69
2022/09/29 06:46:56;;;;;;;17.75;5.15;;;7.30;99.90;;;;;;4988088;28;20030;-70
2022/09/29 06:49:21;;;;;;;12.43;5.47;;;7.30;99.90;;;;;;4988804;28;20060;-70
2022/09/29 06:51:47;;;;;;;12.82;5.35;;;7.30;99.90;;;;;;4988015;28;20038;-69
2022/09/29 06:54:15;;;;;;;11.23;5.60;;;7.40;99.90;;;;;;4978198;28;20106;-69
2022/09/29 06:56:41;;;;;;;13.25;5.28;;;7.40;99.90;;;;;;4988745;28;20040;-71
2022/09/29 06:59:07;;;;;;;11.80;5.65;;;7.50;99.90;;;;;;4985359;28;20114;-69
2022/09/29 07:01:32;;;;;;;10.13;5.07;;;7.50;99.90;;;;;;4981216;28;20461;-69
2022/09/29 07:04:01;;;;;;;11.93;5.35;;;7.60;99.90;;;;;;4980542;28;20045;-71
2022/09/29 07:06:28;;;;;;;13.60;5.30;;;7.70;99.90;;;;;;4983276;28;20034;-69
2022/09/29 07:08:55;;;;;;;12.02;6.03;;;7.80;99.90;;;;;;4975451;28;20038;-69
2022/09/29 07:11:21;;;;;;;15.13;5.50;;;7.80;99.90;;;;;;4989054;28;20042;-69
2022/09/29 07:13:46;;;;;;;13.13;5.53;;;7.90;99.90;;;;;;4984107;28;20019;-70
2022/09/29 07:16:12;;;;;;;9.70;5.47;;;8.00;99.90;;;;;;4974721;28;20639;-70
2022/09/29 07:18:40;;;;;;;14.27;6.72;;;8.10;99.90;;;;;;4970974;28;20019;-69
2022/09/29 07:21:11;;;;;;;16.92;7.20;;;8.20;99.90;;;;;;4985171;28;20031;-69
2022/09/29 07:23:37;;;;;;;;;;;8.30;99.90;;;;;;4980112;28;20034;-69
2022/09/29 07:26:04;;;;;;;11.48;5.88;;;8.40;99.90;;;;;;4990595;28;19917;-69
2022/09/29 07:28:30;;;;;;;12.00;5.53;;;8.40;99.90;;;;;;4982936;28;20029;-69
2022/09/29 07:31:20;;;;;;;12.82;5.35;;;8.50;99.90;;;;;;4977222;28;20494;-70
2022/09/29 07:33:47;;;;;;;13.65;5.88;;;8.60;99.90;;;;;;4978077;28;20211;-69
2022/09/29 07:36:15;;;;;;;10.65;5.70;;;8.70;99.90;;;;;;4979543;28;20112;-69
2022/09/29 07:38:44;;;;;;;11.02;5.68;;;8.70;99.90;;;;;;4981488;28;20026;-70
2022/09/29 07:41:10;;;;;;;13.23;5.53;;;8.80;99.90;;;;;;4982622;28;20759;-69
2022/09/29 07:43:37;;;;;;;9.45;4.65;;;8.90;99.90;;;;;;4982530;28;20402;-69
2022/09/29 07:46:03;;;;;;;10.45;4.93;;;9.00;99.90;;;;;;4982782;28;20121;-69
2022/09/29 07:48:30;;;;;;;9.45;5.22;;;9.10;99.90;;;;;;4973124;28;20034;-69
2022/09/29 07:51:01;;;;;;;10.30;5.20;;;9.20;99.90;;;;;;4986902;28;20065;-70
2022/09/29 07:53:27;;;;;;;16.10;5.47;;;9.30;99.90;;;;;;4985141;28;20145;-72
2022/09/29 07:55:52;;;;;;;10.60;6.03;;;9.30;99.90;;;;;;4969614;28;20545;-69
2022/09/29 07:58:18;;;;;;;12.07;5.78;;;9.40;99.90;;;;;;4976423;28;20035;-69
2022/09/29 08:00:43;;;;;;;10.82;5.53;;;9.50;99.90;;;;;;4979207;28;20054;-70
2022/09/29 08:03:09;;;;;;;10.07;5.07;;;9.60;99.90;;;;;;4979572;28;20026;-69
2022/09/29 08:05:35;;;;;;;12.95;5.78;;;9.70;99.90;;;;;;4985281;28;20406;-69
2022/09/29 08:08:04;;;;;;;10.65;5.78;;;9.70;99.90;;;;;;4973455;28;20092;-68
2022/09/29 08:10:31;;;;;;;10.13;5.30;;;9.80;99.90;;;;;;4984935;28;20432;-69
2022/09/29 08:12:57;;;;;;;12.40;6.07;;;9.80;99.90;;;;;;4979363;28;20080;-70
2022/09/29 08:15:24;;;;;;;16.35;6.55;;;9.90;99.90;;;;;;4978921;28;20047;-69
2022/09/29 08:17:54;;;;;;;12.55;5.80;;;10.00;99.90;;;;;;4978195;28;20035;-70
2022/09/29 08:20:20;;;;;;;11.45;5.78;;;10.00;99.90;;;;;;4985793;28;20046;-70
2022/09/29 08:22:47;;;;;;;9.50;5.13;;;10.00;99.90;;;;;;4986576;28;20483;-70
2022/09/29 08:25:13;;;;;;;14.05;5.85;;;10.10;99.90;;;;;;4985622;28;20045;-69
2022/09/29 08:27:39;;;;;;;17.60;6.28;;;10.10;99.90;;;;;;4982953;28;20046;-69
2022/09/29 08:30:05;;;;;;;11.45;6.22;;;10.10;99.90;;;;;;4979267;28;20038;-70
2022/09/29 08:32:31;;;;;;;12.77;7.03;;;10.20;99.90;;;;;;4980630;28;20046;-69
2022/09/29 08:34:56;;;;;;;14.20;6.70;;;10.30;99.90;;;;;;4978845;28;20038;-68
2022/09/29 08:37:22;;;;;;;15.05;6.32;;;10.30;99.90;;;;;;4976827;28;20038;-69
2022/09/29 08:39:48;;;;;;;12.93;6.63;;;10.30;99.90;;;;;;4976042;28;20045;-69
2022/09/29 08:42:42;;;;;;;15.25;7.10;;;10.40;99.90;;;;;;4978319;28;20030;-69
2022/09/29 08:45:13;;;;;;;13.52;7.32;;;10.40;99.90;;;;;;4981749;28;20046;-69
2022/09/29 08:47:49;;;;;;;14.45;6.93;;;10.50;99.90;;;;;;4983996;28;20053;-69
2022/09/29 08:50:34;;;;;;;12.93;7.03;;;10.60;99.90;;;;;;4981303;28;20059;-69
2022/09/29 08:53:08;;;;;;;23.48;6.90;;;10.70;99.90;;;;;;4968196;28;20089;-71
2022/09/29 08:55:43;;;;;;;11.93;6.28;;;10.70;99.90;;;;;;4968498;28;20105;-70
2022/09/29 08:58:15;;;;;;;13.13;6.88;;;10.90;99.90;;;;;;4975753;28;20112;-70
2022/09/29 09:00:47;;;;;;;13.20;5.90;;;10.90;99.90;;;;;;4983980;28;20030;-70
2022/09/29 09:03:19;;;;;;;14.10;5.97;;;11.00;99.90;;;;;;4973681;28;20459;-68
2022/09/29 09:06:22;;;;;;;13.23;7.15;;;11.00;99.90;;;;;;4974343;28;20043;-69
2022/09/29 09:09:09;;;;;;;12.80;6.93;;;11.20;99.90;;;;;;4975812;28;20089;-70
2022/09/29 09:12:08;;;;;;;13.90;6.78;;;11.30;99.90;;;;;;4971534;28;20034;-69
2022/09/29 09:14:45;;;;;;;14.10;7.03;;;11.40;99.90;;;;;;4976816;28;20063;-70
2022/09/29 09:17:44;;;;;;;12.05;7.07;;;11.60;99.90;;;;;;4962293;28;20038;-69
2022/09/29 09:20:31;;;;;;;12.35;6.35;;;11.70;99.90;;;;;;4978693;28;20483;-69
2022/09/29 09:22:59;;;;;;;10.25;5.55;;;11.80;99.90;;;;;;4966850;28;20635;-69
2022/09/29 09:25:29;;;;;;;9.68;5.32;;;11.90;99.90;;;;;;4981210;28;20038;-69
2022/09/29 09:28:22;;;;;;;12.18;4.90;;;12.00;99.90;;;;;;4979936;28;20098;-69
2022/09/29 09:30:55;;;;;;;6.50;3.53;;;12.10;99.90;;;;;;4971836;28;20030;-70
2022/09/29 09:33:40;;;;;;;8.73;3.67;;;12.20;99.90;;;;;;4989899;28;20054;-69
2022/09/29 09:36:32;;;;;;;8.65;3.67;;;12.30;99.90;;;;;;4974827;28;20069;-69
2022/09/29 09:39:04;;;;;;;7.70;3.67;;;12.40;99.90;;;;;;4970987;28;20042;-68
2022/09/29 09:41:32;;;;;;;9.15;4.68;;;12.50;99.90;;;;;;4977179;28;20078;-69
2022/09/29 09:44:07;;;;;;;9.75;4.40;;;12.60;99.90;;;;;;4979738;28;20042;-69
2022/09/29 09:46:46;;;;;;;6.70;3.58;;;12.60;99.90;;;;;;4978587;28;20059;-69
2022/09/29 09:49:34;;;;;;;7.90;3.67;;;12.70;99.90;;;;;;4972165;28;20031;-69
2022/09/29 09:52:16;;;;;;;7.55;3.95;;;12.80;99.90;;;;;;4973533;28;20094;-69
2022/09/29 09:54:46;;;;;;;8.50;3.55;;;12.80;99.90;;;;;;4974893;28;20035;-69
2022/09/29 09:57:23;;;;;;;5.87;3.30;;;12.90;99.90;;;;;;4974120;28;20031;-71
2022/09/29 10:00:10;;;;;;;4.45;2.05;;;13.10;99.90;;;;;;4973775;28;20491;-70
2022/09/29 10:02:43;;;;;;;6.22;3.03;;;13.10;99.90;;;;;;4974875;28;20057;-70
2022/09/29 10:05:12;;;;;;;4.97;2.03;;;13.10;99.90;;;;;;4975813;28;20047;-69
2022/09/29 10:07:37;;;;;;;5.10;1.70;;;13.10;99.90;;;;;;4977077;28;20065;-69
2022/09/29 10:10:13;;;;;;;5.60;2.42;;;13.10;99.90;;;;;;4982203;28;20109;-69
2022/09/29 10:12:38;;;;;;;6.00;2.90;;;13.20;99.90;;;;;;4978467;28;20030;-69
2022/09/29 10:15:16;;;;;;;9.60;3.33;;;13.30;99.90;;;;;;4974496;28;20050;-69
2022/09/29 10:17:47;;;;;;;3.75;2.15;;;13.30;99.90;;;;;;4978882;28;20042;-71
2022/09/29 10:20:12;;;;;;;4.35;2.00;;;13.30;99.90;;;;;;4979102;28;20046;-70
2022/09/29 10:22:38;;;;;;;4.72;2.20;;;13.40;99.90;;;;;;4978385;28;20056;-68
2022/09/29 10:25:07;;;;;;;3.33;1.73;;;13.50;99.90;;;;;;4974251;28;20162;-69
2022/09/29 10:27:34;;;;;;;6.33;2.80;;;13.50;99.90;;;;;;4976930;28;20070;-69
2022/09/29 10:30:02;;;;;;;7.13;2.90;;;13.50;99.90;;;;;;4979653;28;20521;-69
2022/09/29 10:32:35;;;;;;;4.85;2.67;;;13.50;99.90;;;;;;4981083;28;20046;-70
2022/09/29 10:35:23;;;;;;;7.68;3.83;;;13.60;99.90;;;;;;4979651;28;20034;-70
2022/09/29 10:38:00;;;;;;;4.22;2.45;;;13.60;99.90;;;;;;4975606;28;20134;-70
2022/09/29 10:40:25;;;;;;;4.60;2.25;;;13.60;99.90;;;;;;4977028;28;20083;-71
2022/09/29 10:42:52;;;;;;;5.28;2.63;;;13.60;99.90;;;;;;4980308;28;20495;-70
2022/09/29 10:45:22;;;;;;;5.65;2.78;;;13.70;99.90;;;;;;4981654;28;20644;-70
2022/09/29 10:48:07;;;;;;;4.65;2.03;;;13.70;99.90;;;;;;4977859;28;20043;-70
2022/09/29 10:50:53;;;;;;;3.58;2.00;;;13.70;99.90;;;;;;4970916;28;20038;-70
2022/09/29 10:53:26;;;;;;;8.75;3.65;;;13.70;99.90;;;;;;4977496;28;20069;-69
2022/09/29 10:55:54;;;;;;;7.80;3.33;;;13.80;99.90;;;;;;4981183;28;20039;-70
2022/09/29 10:58:33;;;;;;;4.15;2.10;;;13.70;99.90;;;;;;4979335;28;20035;-69
2022/09/29 11:01:06;;;;;;;4.32;2.15;;;13.80;99.90;;;;;;4976983;28;20034;-70
2022/09/29 11:03:33;;;;;;;5.20;2.08;;;13.80;99.90;;;;;;4972771;28;20034;-68
2022/09/29 11:06:02;;;;;;;4.95;2.80;;;13.90;99.90;;;;;;4979713;28;20674;-69
2022/09/29 11:08:30;;;;;;;5.63;2.58;;;14.00;99.90;;;;;;4984567;28;20514;-69
2022/09/29 11:11:27;;;;;;;4.45;2.10;;;14.10;99.90;;;;;;4974173;28;20560;-70
2022/09/29 11:13:54;;;;;;;4.35;2.05;;;14.10;99.90;;;;;;4959012;28;20043;-69
2022/09/29 11:16:28;;;;;;;11.65;3.33;;;14.10;99.90;;;;;;4981746;28;20058;-69
2022/09/29 11:19:16;;;;;;;4.30;1.77;;;14.20;99.90;;;;;;4985489;28;20042;-69
2022/09/29 11:22:00;;;;;;;2.67;1.52;;;14.10;99.90;;;;;;4983845;28;20039;-69
2022/09/29 11:24:41;;;;;;;3.80;1.95;;;14.10;99.90;;;;;;4984107;28;20121;-69
2022/09/29 11:27:35;;;;;;;4.07;2.28;;;14.20;99.90;;;;;;4984462;28;20049;-70
2022/09/29 11:30:16;;;;;;;3.42;2.00;;;14.20;99.90;;;;;;4977330;28;20035;-70
2022/09/29 11:32:41;;;;;;;3.38;1.52;;;14.30;99.90;;;;;;4978325;28;20054;-69
2022/09/29 11:35:17;;;;;;;2.50;1.35;;;14.40;99.90;;;;;;4983550;28;20530;-68
2022/09/29 11:38:15;;;;;;;6.80;1.63;;;14.50;99.90;;;;;;4982928;28;20633;-70
2022/09/29 11:40:56;;;;;;;2.33;0.95;;;14.70;99.90;;;;;;4977505;28;20089;-70
2022/09/29 11:43:40;;;;;;;3.08;1.42;;;14.80;99.90;;;;;;4979820;28;20077;-70
2022/09/29 11:46:25;;;;;;;3.40;1.73;;;14.80;99.90;;;;;;4978105;28;20073;-70
2022/09/29 11:48:52;;;;;;;2.95;1.27;;;14.80;99.90;;;;;;4980974;28;20403;-70
2022/09/29 11:51:24;;;;;;;2.45;1.55;;;14.70;99.90;;;;;;4980886;28;20775;-70
2022/09/29 11:53:52;;;;;;;2.63;1.35;;;14.60;99.90;;;;;;4979207;28;20054;-69
2022/09/29 11:56:46;;;;;;;1.58;1.17;;;14.50;99.90;;;;;;4978345;28;20415;-69
2022/09/29 11:59:22;;;;;;;1.67;0.90;;;14.40;99.90;;;;;;4978444;28;20047;-69
2022/09/29 12:02:01;;;;;;;1.65;0.73;;;14.30;99.90;;;;;;4977510;28;20125;-70
2022/09/29 12:04:40;;;;;;;1.43;0.67;;;14.20;99.90;;;;;;4974396;28;20043;-70
2022/09/29 12:07:39;;;;;;;2.05;0.80;;;14.10;99.90;;;;;;4976618;28;20038;-69
2022/09/29 12:10:31;;;;;;;3.90;1.67;;;14.10;99.90;;;;;;4972515;28;20046;-69
2022/09/29 12:13:19;;;;;;;2.72;1.20;;;14.00;99.90;;;;;;4972128;28;20063;-69
2022/09/29 12:15:57;;;;;;;2.38;1.10;;;14.10;99.90;;;;;;4973705;28;20031;-69
2022/09/29 12:18:35;;;;;;;2.33;0.80;;;14.20;99.90;;;;;;4973821;28;20034;-70
2022/09/29 12:21:01;;;;;;;2.92;1.02;;;14.20;99.90;;;;;;4978289;28;20422;-68
2022/09/29 12:23:29;;;;;;;1.25;0.70;;;14.30;99.90;;;;;;4975214;28;20031;-69
2022/09/29 12:26:18;;;;;;;2.33;0.60;;;14.30;99.90;;;;;;4975875;28;20050;-70
2022/09/29 12:28:59;;;;;;;3.22;1.25;;;14.40;99.90;;;;;;4979673;28;20130;-69
2022/09/29 12:31:32;;;;;;;2.53;1.17;;;14.60;99.90;;;;;;4982625;28;20042;-70
2022/09/29 12:34:04;;;;;;;5.88;1.20;;;14.70;99.90;;;;;;4973166;28;20030;-70
2022/09/29 12:36:42;;;;;;;1.70;0.93;;;14.80;99.90;;;;;;4971095;28;20041;-70
2022/09/29 12:39:37;;;;;;;1.65;0.90;;;14.80;99.90;;;;;;4973566;28;20047;-69
2022/09/29 12:42:47;;;;;;;1.83;0.80;;;14.90;99.90;;;;;;4960901;28;20043;-70
2022/09/29 12:45:15;;;;;;;3.38;1.20;;;14.90;99.90;;;;;;4975579;28;20050;-70
2022/09/29 12:47:51;;;;;;;2.20;1.15;;;14.90;99.90;;;;;;4975220;28;20034;-69
2022/09/29 12:50:22;;;;;;;2.13;0.93;;;14.90;99.90;;;;;;4973897;28;20043;-69
2022/09/29 12:52:54;;;;;;;1.83;1.20;;;14.90;99.90;;;;;;4973279;28;20061;-69
2022/09/29 12:55:30;;;;;;;1.27;0.82;;;14.90;99.90;;;;;;4973642;28;20055;-70
2022/09/29 12:57:59;;;;;;;1.88;0.98;;;14.90;99.90;;;;;;4973899;28;20117;-69
2022/09/29 13:00:27;;;;;;;2.65;0.77;;;14.80;99.90;;;;;;4977585;28;20467;-70
2022/09/29 13:03:23;;;;;;;4.57;1.25;;;14.70;99.90;;;;;;4972060;28;20030;-70
2022/09/29 13:06:24;;;;;;;1.95;0.98;;;14.60;99.90;;;;;;4975303;28;20046;-71
2022/09/29 13:09:16;;;;;;;2.03;0.90;;;14.50;99.90;;;;;;4973614;28;20046;-70
2022/09/29 13:11:54;;;;;;;2.75;0.98;;;14.40;99.90;;;;;;4971757;28;20711;-70
2022/09/29 13:14:41;;;;;;;1.05;0.82;;;14.30;99.90;;;;;;4974574;28;20041;-71
2022/09/29 13:17:20;;;;;;;1.67;0.63;;;14.20;99.90;;;;;;4976209;28;20034;-69